Time;durP1;ratioP1;P1;durP2;ratioP2;P2;SDS_P1;SDS_P2;PMS_P1;PMS_P2;Temp;Humidity;BMP_temperature;BMP_pressure;BME280_temperature;BME280_humidity;BME280_pressure;Samples;Min_cycle;Max_cycle;Signal;HPM_P1;HPM_P2
2023/08/07 00:01:47;;;;;;;0.40;0.40;;;;;;;23.75;60.72;98645.53;5052601;28;20227;-65
2023/08/07 00:04:15;;;;;;;0.40;0.40;;;;;;;23.71;61.05;98652.03;5052732;28;20247;-66
2023/08/07 00:06:41;;;;;;;0.30;0.30;;;;;;;23.67;62.12;98636.75;5053067;28;20200;-66
2023/08/07 00:09:08;;;;;;;0.30;0.30;;;;;;;23.85;61.50;98648.06;5053036;28;20207;-66
2023/08/07 00:11:35;;;;;;;10.10;0.40;;;;;;;23.89;61.86;98642.41;5053219;28;20194;-66
2023/08/07 00:14:02;;;;;;;0.30;0.30;;;;;;;24.00;61.93;98649.22;5053088;28;20204;-66
2023/08/07 00:16:28;;;;;;;0.20;0.20;;;;;;;24.11;61.31;98661.25;5052970;28;20196;-66
2023/08/07 00:18:56;;;;;;;0.33;0.33;;;;;;;24.17;61.57;98664.13;5052806;28;20196;-66
2023/08/07 00:21:24;;;;;;;0.40;0.40;;;;;;;24.22;61.49;98669.75;5052569;28;20688;-66
2023/08/07 00:23:51;;;;;;;0.43;0.43;;;;;;;24.31;60.73;98662.78;5052912;28;20692;-66
2023/08/07 00:26:17;;;;;;;0.20;0.20;;;;;;;24.26;61.89;98650.16;5052694;28;20201;-66
2023/08/07 00:28:44;;;;;;;0.30;0.30;;;;;;;24.44;61.65;98663.22;5052596;28;20204;-66
2023/08/07 00:31:12;;;;;;;0.30;0.30;;;;;;;24.49;60.82;98668.84;5052563;28;20208;-66
2023/08/07 00:33:38;;;;;;;0.20;0.20;;;;;;;24.52;61.17;98671.97;5052358;28;20201;-66
2023/08/07 00:36:05;;;;;;;0.40;0.40;;;;;;;24.54;61.26;98672.66;5052518;28;20205;-66
2023/08/07 00:38:33;;;;;;;0.40;0.40;;;;;;;24.51;60.57;98674.75;5052254;28;20192;-66
2023/08/07 00:41:00;;;;;;;0.40;0.40;;;;;;;24.36;60.57;98665.78;5052489;28;20224;-66
2023/08/07 00:43:27;;;;;;;0.30;0.30;;;;;;;24.18;61.59;98678.88;5052479;28;20584;-66
2023/08/07 00:45:54;;;;;;;0.33;0.33;;;;;;;23.98;62.49;98678.16;5052596;28;20266;-66
2023/08/07 00:48:22;;;;;;;0.43;0.43;;;;;;;23.88;63.68;98680.00;5052197;28;20216;-66
2023/08/07 00:50:50;;;;;;;0.40;0.40;;;;;;;23.77;64.20;98680.25;5052690;28;20556;-66
2023/08/07 00:53:17;;;;;;;0.30;0.30;;;;;;;23.67;65.39;98670.78;5052097;28;20205;-66
2023/08/07 00:55:46;;;;;;;0.30;0.30;;;;;;;23.64;65.74;98677.13;5052283;28;20204;-66
2023/08/07 00:58:13;;;;;;;0.40;0.40;;;;;;;23.60;66.03;98686.25;5052268;28;20205;-66
2023/08/07 01:00:41;;;;;;;0.40;0.40;;;;;;;23.49;65.72;98681.19;5052410;28;20653;-66
2023/08/07 01:03:08;;;;;;;0.30;0.30;;;;;;;23.41;66.51;98678.50;5049805;28;20208;-66
2023/08/07 01:05:35;;;;;;;0.40;0.33;;;;;;;23.35;66.46;98679.03;5052129;28;20626;-66
2023/08/07 01:08:03;;;;;;;0.40;0.40;;;;;;;23.34;66.56;98672.16;5051897;28;20562;-66
2023/08/07 01:10:41;;;;;;;0.40;0.40;;;;;;;23.23;66.48;98675.75;5052493;28;20604;-66
2023/08/07 01:13:25;;;;;;;0.40;0.40;;;;;;;23.22;67.13;98684.59;5050707;28;20254;-66
2023/08/07 01:15:59;;;;;;;0.43;0.43;;;;;;;23.14;67.77;98688.88;5052133;28;20262;-66
2023/08/07 01:18:27;;;;;;;0.40;0.40;;;;;;;23.06;68.29;98705.28;5051963;28;20262;-66
2023/08/07 01:20:54;;;;;;;0.40;0.40;;;;;;;22.78;69.35;98695.72;5051606;28;20557;-66
2023/08/07 01:23:22;;;;;;;0.40;0.40;;;;;;;22.61;70.64;98699.00;5051642;28;20299;-66
2023/08/07 01:25:49;;;;;;;0.43;0.43;;;;;;;22.42;71.97;98702.44;5051848;28;20207;-66
2023/08/07 01:28:25;;;;;;;0.60;0.60;;;;;;;22.27;72.73;98691.56;5051559;28;20204;-66
2023/08/07 01:30:58;;;;;;;0.47;0.47;;;;;;;22.24;72.30;98693.63;5051649;28;20261;-66
2023/08/07 01:33:32;;;;;;;0.50;0.50;;;;;;;22.17;71.89;98695.13;5051830;28;20679;-66
2023/08/07 01:36:03;;;;;;;1.33;0.60;;;;;;;22.08;72.41;98701.16;5051795;28;20672;-66
2023/08/07 01:38:32;;;;;;;0.30;0.30;;;;;;;22.07;72.34;98683.88;5051918;28;20203;-66
2023/08/07 01:41:01;;;;;;;0.50;0.50;;;;;;;22.06;72.42;98692.66;5051371;28;20207;-66
2023/08/07 01:43:28;;;;;;;0.40;0.40;;;;;;;22.01;72.76;98690.44;5051434;28;20201;-66
2023/08/07 01:45:54;;;;;;;0.47;0.47;;;;;;;21.94;73.57;98684.94;5051733;28;20196;-65
2023/08/07 01:48:21;;;;;;;0.60;0.60;;;;;;;21.88;73.68;98685.44;5051314;28;20204;-66
2023/08/07 01:50:48;;;;;;;0.50;0.50;;;;;;;21.83;74.33;98689.44;5051454;28;20203;-66
2023/08/07 01:53:15;;;;;;;0.50;0.50;;;;;;;21.76;74.93;98681.31;5051013;28;20207;-66
2023/08/07 01:55:43;;;;;;;0.57;0.57;;;;;;;21.70;75.78;98692.28;5051512;28;20204;-66
2023/08/07 01:58:10;;;;;;;0.50;0.50;;;;;;;21.74;75.22;98698.06;5051108;28;20209;-66
2023/08/07 02:00:36;;;;;;;0.40;0.40;;;;;;;21.72;75.23;98700.78;5051309;28;20247;-66
2023/08/07 02:03:03;;;;;;;0.40;0.40;;;;;;;21.67;75.43;98718.63;5051028;28;20220;-66
2023/08/07 02:05:30;;;;;;;0.37;0.37;;;;;;;21.67;75.27;98718.63;5051021;28;20199;-66
2023/08/07 02:07:57;;;;;;;0.63;0.63;;;;;;;21.63;76.23;98722.47;5051292;28;20205;-66
2023/08/07 02:10:24;;;;;;;0.60;0.60;;;;;;;21.56;75.91;98723.94;5050962;28;20227;-66
2023/08/07 02:12:52;;;;;;;0.40;0.40;;;;;;;21.48;76.81;98729.00;5051375;28;20635;-66
2023/08/07 02:15:19;;;;;;;0.50;0.50;;;;;;;21.44;76.99;98727.59;5050902;28;20251;-66
2023/08/07 02:17:45;;;;;;;0.57;0.57;;;;;;;21.38;77.31;98733.34;5050979;28;20671;-66
2023/08/07 02:20:12;;;;;;;0.60;0.60;;;;;;;21.31;77.56;98717.38;5050955;28;20204;-66
2023/08/07 02:22:39;;;;;;;0.50;0.50;;;;;;;21.35;78.18;98729.22;5050756;28;20231;-66
2023/08/07 02:25:07;;;;;;;0.47;0.47;;;;;;;21.25;78.11;98722.28;5050840;28;20262;-66
2023/08/07 02:27:33;;;;;;;0.50;0.50;;;;;;;21.22;78.60;98730.38;5050579;28;20202;-66
2023/08/07 02:30:03;;;;;;;0.67;0.67;;;;;;;21.20;78.73;98727.06;5050691;28;20248;-66
2023/08/07 02:32:30;;;;;;;0.43;0.43;;;;;;;21.20;78.74;98735.72;5048893;28;20200;-66
2023/08/07 02:34:56;;;;;;;0.50;0.50;;;;;;;21.20;78.74;98737.47;5050733;28;20200;-66
2023/08/07 02:37:23;;;;;;;0.40;0.40;;;;;;;21.23;78.45;98739.84;5050422;28;20199;-65
2023/08/07 02:39:50;;;;;;;0.80;0.80;;;;;;;21.17;78.63;98737.75;5051090;28;20196;-66
2023/08/07 02:42:17;;;;;;;0.53;0.53;;;;;;;21.18;78.81;98742.00;5050391;28;20565;-65
2023/08/07 02:44:44;;;;;;;0.57;0.57;;;;;;;21.18;78.47;98742.84;5050598;28;20659;-65
2023/08/07 02:47:12;;;;;;;0.40;0.40;;;;;;;21.23;78.66;98745.03;5050535;28;20202;-66
2023/08/07 02:49:39;;;;;;;0.50;0.50;;;;;;;21.21;78.05;98746.97;5050538;28;20203;-65
2023/08/07 02:52:06;;;;;;;2.17;0.40;;;;;;;21.21;78.61;98750.41;5050478;28;20202;-66
2023/08/07 02:54:32;;;;;;;0.37;0.37;;;;;;;21.15;78.31;98752.69;5050471;28;20258;-65
2023/08/07 02:56:59;;;;;;;0.53;0.53;;;;;;;21.13;79.29;98749.41;5050674;28;20196;-66
2023/08/07 02:59:26;;;;;;;0.50;0.50;;;;;;;21.17;79.45;98756.00;5050524;28;20272;-66
2023/08/07 03:01:53;;;;;;;0.50;0.50;;;;;;;21.21;79.53;98754.78;5050107;28;20222;-66
2023/08/07 03:04:21;;;;;;;0.40;0.40;;;;;;;21.22;79.51;98753.84;5050414;28;20211;-66
2023/08/07 03:06:48;;;;;;;0.80;0.80;;;;;;;21.07;79.20;98739.44;5050024;28;20210;-66
2023/08/07 03:09:14;;;;;;;0.57;0.57;;;;;;;21.12;79.58;98750.34;5050327;28;20203;-66
2023/08/07 03:11:41;;;;;;;0.50;0.50;;;;;;;21.02;79.94;98758.06;5050089;28;20201;-65
2023/08/07 03:14:08;;;;;;;0.40;0.40;;;;;;;21.00;80.28;98757.38;5050210;28;20203;-66
2023/08/07 03:16:35;;;;;;;0.50;0.50;;;;;;;20.91;81.08;98753.75;5050424;28;20211;-66
2023/08/07 03:19:01;;;;;;;1.33;0.53;;;;;;;20.90;81.52;98759.09;5048877;28;20199;-66
2023/08/07 03:21:29;;;;;;;0.80;0.80;;;;;;;20.90;81.42;98759.09;5050310;28;20207;-66
2023/08/07 03:23:56;;;;;;;0.37;0.37;;;;;;;20.90;81.64;98759.91;5050151;28;20201;-66
2023/08/07 03:26:23;;;;;;;0.70;0.70;;;;;;;20.86;81.99;98762.91;5050375;28;20211;-66
2023/08/07 03:28:50;;;;;;;1.07;0.50;;;;;;;20.80;82.16;98769.44;5050017;28;20221;-65
2023/08/07 03:31:17;;;;;;;0.50;0.50;;;;;;;20.80;82.42;98768.63;5050271;28;20255;-66
2023/08/07 03:33:44;;;;;;;0.33;0.33;;;;;;;20.74;82.10;98775.13;5050208;28;20209;-66
2023/08/07 03:36:11;;;;;;;0.47;0.47;;;;;;;20.75;82.63;98786.38;5051045;28;20679;-66
2023/08/07 03:38:39;;;;;;;0.40;0.40;;;;;;;20.64;82.86;98773.41;5054204;28;20636;-66
2023/08/07 03:41:06;;;;;;;0.40;0.40;;;;;;;20.71;82.82;98785.81;5053268;28;20207;-66
2023/08/07 03:43:32;;;;;;;0.83;0.67;;;;;;;20.66;83.29;98787.97;5053548;28;20241;-66
2023/08/07 03:45:59;;;;;;;0.80;0.80;;;;;;;20.70;82.75;98794.59;5053341;28;20210;-66
2023/08/07 03:48:26;;;;;;;0.50;0.50;;;;;;;20.74;82.65;98793.38;5053260;28;20206;-66
2023/08/07 03:50:53;;;;;;;0.33;0.33;;;;;;;20.82;82.31;98792.75;5053352;28;20203;-66
2023/08/07 03:53:19;;;;;;;0.30;0.30;;;;;;;20.89;81.87;98794.75;5053611;28;20205;-66
2023/08/07 03:55:52;;;;;;;0.60;0.60;;;;;;;20.91;81.64;98792.81;5053572;28;20264;-65
2023/08/07 03:58:19;;;;;;;0.53;0.53;;;;;;;20.92;82.03;98797.09;5052083;28;20319;-66
2023/08/07 04:00:46;;;;;;;0.50;0.50;;;;;;;20.93;82.43;98798.75;5053496;28;20207;-66
2023/08/07 04:03:12;;;;;;;0.50;0.50;;;;;;;20.95;81.38;98794.22;5052942;28;20226;-66
2023/08/07 04:05:39;;;;;;;0.50;0.50;;;;;;;20.98;81.57;98805.34;5053272;28;20580;-65
2023/08/07 04:08:06;;;;;;;3.70;0.70;;;;;;;20.97;81.31;98798.50;5052957;28;20242;-65
2023/08/07 04:10:33;;;;;;;0.70;0.70;;;;;;;20.90;81.45;98790.38;5053197;28;20207;-65
2023/08/07 04:13:01;;;;;;;0.50;0.50;;;;;;;21.01;81.32;98800.72;5052724;28;20195;-65
2023/08/07 04:15:27;;;;;;;0.67;0.67;;;;;;;21.01;81.79;98802.50;5050987;28;20198;-66
2023/08/07 04:17:54;;;;;;;0.80;0.80;;;;;;;21.03;80.90;98798.81;5052926;28;20207;-65
2023/08/07 04:20:21;;;;;;;0.40;0.40;;;;;;;21.07;80.67;98797.59;5052679;28;20208;-65
2023/08/07 04:22:48;;;;;;;0.60;0.60;;;;;;;21.11;80.95;98798.22;5052719;28;20243;-66
2023/08/07 04:25:15;;;;;;;0.40;0.40;;;;;;;21.14;80.75;98803.16;5052747;28;20675;-65
2023/08/07 04:27:41;;;;;;;0.60;0.60;;;;;;;21.19;80.75;98806.22;5052817;28;20203;-65
2023/08/07 04:30:11;;;;;;;0.50;0.50;;;;;;;21.22;80.73;98811.19;5052627;28;20208;-65
2023/08/07 04:32:38;;;;;;;0.50;0.50;;;;;;;21.34;80.71;98815.38;5052858;28;20271;-65
2023/08/07 04:35:06;;;;;;;0.60;0.60;;;;;;;21.40;79.73;98814.88;5052763;28;20699;-65
2023/08/07 04:37:32;;;;;;;0.50;0.50;;;;;;;21.51;79.43;98822.63;5052016;28;20227;-64
2023/08/07 04:40:00;;;;;;;0.80;0.80;;;;;;;21.59;79.17;98821.97;5052108;28;20699;-68
2023/08/07 04:42:27;;;;;;;0.97;0.97;;;;;;;21.76;78.75;98821.38;5049486;28;20230;-66
2023/08/07 04:44:54;;;;;;;0.47;0.47;;;;;;;21.90;77.95;98821.91;5051948;28;20203;-65
2023/08/07 04:47:22;;;;;;;0.70;0.70;;;;;;;22.00;77.91;98821.94;5052023;28;20719;-65
2023/08/07 04:49:49;;;;;;;0.50;0.50;;;;;;;22.17;76.85;98823.06;5052357;28;20679;-66
2023/08/07 04:52:15;;;;;;;0.50;0.50;;;;;;;22.28;75.54;98817.75;5051779;28;20199;-65
2023/08/07 04:54:42;;;;;;;0.40;0.40;;;;;;;22.33;76.03;98820.75;5051913;28;20204;-65
2023/08/07 04:57:09;;;;;;;0.47;0.47;;;;;;;22.41;75.63;98826.16;5050331;28;20204;-65
2023/08/07 04:59:35;;;;;;;0.40;0.40;;;;;;;22.58;75.78;98828.13;5051955;28;20200;-66
2023/08/07 05:02:02;;;;;;;0.60;0.60;;;;;;;22.55;73.92;98820.56;5051318;28;20200;-66
2023/08/07 05:04:30;;;;;;;0.47;0.47;;;;;;;22.56;74.24;98811.75;5050598;28;20200;-70
2023/08/07 05:06:57;;;;;;;0.40;0.40;;;;;;;22.77;73.85;98838.63;5051829;28;20210;-69
2023/08/07 05:09:24;;;;;;;0.30;0.30;;;;;;;22.94;74.12;98848.38;5050512;28;20205;-69
2023/08/07 05:11:51;;;;;;;0.40;0.40;;;;;;;23.12;73.53;98845.09;5050056;28;20295;-69
2023/08/07 05:14:18;;;;;;;0.63;0.63;;;;;;;23.33;71.08;98843.13;5050690;28;20232;-69
2023/08/07 05:16:45;;;;;;;0.60;0.60;;;;;;;23.39;70.56;98845.22;5049994;28;20266;-66
2023/08/07 05:19:11;;;;;;;0.43;0.43;;;;;;;23.44;69.63;98850.84;5051061;28;20215;-66
2023/08/07 05:21:39;;;;;;;0.60;0.60;;;;;;;23.50;68.43;98845.06;5051206;28;20227;-66
2023/08/07 05:24:06;;;;;;;0.50;0.50;;;;;;;23.55;69.39;98847.25;5050650;28;20706;-66
2023/08/07 05:26:33;;;;;;;0.40;0.40;;;;;;;23.64;70.00;98842.00;5051038;28;20209;-67
2023/08/07 05:29:00;;;;;;;0.43;0.43;;;;;;;23.94;68.33;98854.03;5050638;28;20665;-67
2023/08/07 05:31:26;;;;;;;0.80;0.80;;;;;;;24.01;67.89;98861.16;5046523;28;20262;-66
2023/08/07 05:33:53;;;;;;;0.40;0.40;;;;;;;24.21;66.52;98856.69;5050829;28;20657;-66
2023/08/07 05:36:20;;;;;;;0.70;0.70;;;;;;;24.28;66.08;98863.00;5050967;28;20215;-66
2023/08/07 05:38:48;;;;;;;0.60;0.60;;;;;;;24.35;66.47;98855.38;5051465;28;20200;-66
2023/08/07 05:41:15;;;;;;;0.67;0.67;;;;;;;24.48;67.50;98853.25;5051446;28;20596;-67
2023/08/07 05:43:41;;;;;;;0.50;0.50;;;;;;;24.43;64.21;98860.72;5051264;28;20683;-66
2023/08/07 05:46:08;;;;;;;0.60;0.60;;;;;;;24.48;65.45;98864.56;5049757;28;20205;-67
2023/08/07 05:48:35;;;;;;;0.60;0.60;;;;;;;24.59;64.41;98860.09;5051191;28;20201;-67
2023/08/07 05:51:02;;;;;;;0.50;0.50;;;;;;;24.71;62.26;98859.72;5051314;28;20197;-66
2023/08/07 05:53:28;;;;;;;0.63;0.63;;;;;;;24.81;64.12;98860.47;5050867;28;20618;-67
2023/08/07 05:55:57;;;;;;;0.57;0.57;;;;;;;24.90;60.97;98870.09;5047345;28;20637;-66
2023/08/07 05:58:24;;;;;;;0.40;0.40;;;;;;;24.95;61.63;98873.09;5048063;28;20687;-66
2023/08/07 06:00:50;;;;;;;0.60;0.60;;;;;;;24.89;61.28;98871.06;5048663;28;20208;-66
2023/08/07 06:03:17;;;;;;;0.63;0.63;;;;;;;25.00;62.11;98868.25;5048923;28;20676;-65
2023/08/07 06:05:44;;;;;;;0.50;0.50;;;;;;;25.11;61.50;98875.03;5050024;28;20197;-65
2023/08/07 06:08:11;;;;;;;0.40;0.40;;;;;;;25.20;62.75;98860.22;5047617;28;20225;-66
2023/08/07 06:10:39;;;;;;;0.50;0.50;;;;;;;25.22;61.23;98860.88;5048596;28;20254;-66
2023/08/07 06:13:08;;;;;;;0.50;0.50;;;;;;;25.36;59.43;98857.72;5048438;28;20208;-66
2023/08/07 06:15:35;;;;;;;0.40;0.40;;;;;;;25.58;60.34;98859.88;5044716;28;20695;-67
2023/08/07 06:18:01;;;;;;;0.60;0.60;;;;;;;25.94;60.46;98866.66;5048109;28;20200;-66
2023/08/07 06:20:28;;;;;;;0.50;0.50;;;;;;;26.27;58.55;98867.63;5048394;28;20676;-68
2023/08/07 06:22:55;;;;;;;0.30;0.30;;;;;;;26.37;58.03;98867.50;5048480;28;20708;-68
2023/08/07 06:25:22;;;;;;;0.40;0.40;;;;;;;26.26;56.84;98866.00;5043726;28;20685;-67
2023/08/07 06:27:48;;;;;;;0.50;0.50;;;;;;;26.34;58.37;98865.19;5049622;28;20637;-68
2023/08/07 06:30:16;;;;;;;0.43;0.43;;;;;;;26.35;59.11;98874.75;5048454;28;20211;-65
2023/08/07 06:32:43;;;;;;;0.53;0.40;;;;;;;26.63;59.00;98870.88;5049060;28;20554;-72
2023/08/07 06:35:10;;;;;;;0.50;0.50;;;;;;;26.67;56.96;98859.06;5049403;28;20204;-71
2023/08/07 06:37:37;;;;;;;0.50;0.50;;;;;;;26.85;57.90;98857.13;5047898;28;20611;-71
2023/08/07 06:40:05;;;;;;;0.50;0.50;;;;;;;27.02;57.72;98864.06;5048362;28;20209;-72
2023/08/07 06:42:31;;;;;;;0.40;0.40;;;;;;;27.23;57.05;98865.41;5047593;28;20208;-72
2023/08/07 06:44:58;;;;;;;0.40;0.40;;;;;;;27.28;55.99;98868.34;5046806;28;20584;-72
2023/08/07 06:47:26;;;;;;;0.40;0.40;;;;;;;27.46;56.43;98863.78;5048863;28;20219;-73
2023/08/07 06:49:53;;;;;;;0.40;0.40;;;;;;;27.46;57.48;98864.63;5048654;28;20666;-72
2023/08/07 06:52:20;;;;;;;0.40;0.40;;;;;;;27.19;55.62;98871.97;5048145;28;20215;-72
2023/08/07 06:54:47;;;;;;;0.40;0.40;;;;;;;27.20;57.56;98886.78;5049955;28;20201;-72
2023/08/07 06:57:13;;;;;;;0.30;0.30;;;;;;;27.33;57.44;98869.53;5043824;28;20269;-71
2023/08/07 06:59:40;;;;;;;0.30;0.30;;;;;;;27.31;57.53;98878.56;5047599;28;20584;-71
2023/08/07 07:02:07;;;;;;;0.50;0.40;;;;;;;27.52;56.10;98877.13;5044422;28;20221;-70
2023/08/07 07:04:36;;;;;;;0.40;0.40;;;;;;;27.63;53.43;98860.13;5045319;28;20225;-70
2023/08/07 07:07:03;;;;;;;0.50;0.50;;;;;;;27.73;52.14;98873.09;5046742;28;20239;-70
2023/08/07 07:09:30;;;;;;;0.40;0.40;;;;;;;27.88;53.22;98877.53;5048031;28;20704;-71
2023/08/07 07:11:57;;;;;;;0.30;0.30;;;;;;;28.12;54.18;98869.59;5049415;28;20201;-71
2023/08/07 07:14:24;;;;;;;0.30;0.30;;;;;;;28.37;51.80;98872.94;5051851;28;20588;-73
2023/08/07 07:16:51;;;;;;;0.37;0.37;;;;;;;28.42;51.98;98875.06;5050661;28;20661;-72
2023/08/07 07:19:18;;;;;;;0.30;0.30;;;;;;;28.52;51.89;98876.50;5052740;28;20211;-72
2023/08/07 07:21:46;;;;;;;0.37;0.37;;;;;;;28.77;51.28;98874.56;5051687;28;20327;-70
2023/08/07 07:24:13;;;;;;;0.40;0.40;;;;;;;28.78;48.59;98865.66;5050794;28;20225;-69
2023/08/07 07:26:40;;;;;;;0.40;0.40;;;;;;;28.75;49.07;98871.28;5052372;28;20208;-73
2023/08/07 07:29:06;;;;;;;4.90;0.50;;;;;;;28.61;47.90;98872.00;5051885;28;20211;-72
2023/08/07 07:31:33;;;;;;;0.30;0.30;;;;;;;28.57;52.10;98863.59;5052422;28;20236;-72
2023/08/07 07:34:00;;;;;;;0.30;0.30;;;;;;;28.76;49.02;98872.91;5050819;28;20200;-70
2023/08/07 07:36:27;;;;;;;0.20;0.20;;;;;;;28.81;48.47;98864.50;5051816;28;20279;-71
2023/08/07 07:38:55;;;;;;;0.40;0.40;;;;;;;28.83;49.01;98863.31;5052103;28;20286;-72
2023/08/07 07:41:23;;;;;;;0.40;0.40;;;;;;;28.70;46.29;98868.34;5050652;28;20688;-65
2023/08/07 07:43:50;;;;;;;0.23;0.23;;;;;;;28.80;47.00;98861.03;5052259;28;20220;-74
2023/08/07 07:46:17;;;;;;;0.30;0.30;;;;;;;29.16;46.93;98862.09;5052563;28;20572;-73
2023/08/07 07:48:44;;;;;;;0.93;0.60;;;;;;;29.37;46.22;98871.19;5050064;28;20212;-73
2023/08/07 07:51:11;;;;;;;0.40;0.40;;;;;;;29.64;44.27;98860.84;5052144;28;20204;-73
2023/08/07 07:53:37;;;;;;;0.37;0.37;;;;;;;29.88;44.06;98861.66;5047435;28;20627;-74
2023/08/07 07:56:06;;;;;;;4.03;0.35;;;;;;;29.87;41.06;98868.75;5048666;28;20204;-73
2023/08/07 07:58:32;;;;;;;0.25;0.25;;;;;;;30.05;43.27;98855.97;5051922;28;20211;-73
2023/08/07 08:00:59;;;;;;;0.28;0.28;;;;;;;30.11;40.17;98855.25;5051701;28;20201;-74
2023/08/07 08:03:27;;;;;;;0.20;0.20;;;;;;;30.39;42.65;98854.56;5050060;28;20225;-74
2023/08/07 08:05:53;;;;;;;0.28;0.28;;;;;;;30.52;39.76;98863.53;5052054;28;20552;-72
2023/08/07 08:08:20;;;;;;;0.40;0.40;;;;;;;30.52;39.45;98857.41;5051747;28;20205;-72
2023/08/07 08:10:47;;;;;;;0.25;0.22;;;;;;;30.72;38.90;98858.44;5052017;28;20193;-75
2023/08/07 08:13:16;;;;;;;0.30;0.30;;;;;;;30.94;38.98;98862.75;5049981;28;20204;-67
2023/08/07 08:15:43;;;;;;;0.30;0.30;;;;;;;31.16;38.67;98850.34;5050241;28;20204;-75
2023/08/07 08:18:10;;;;;;;1.27;1.27;;;;;;;31.30;38.28;98851.28;5050483;28;20658;-75
2023/08/07 08:20:37;;;;;;;0.30;0.30;;;;;;;31.41;35.76;98856.88;5050040;28;20205;-65
2023/08/07 08:23:04;;;;;;;0.38;0.38;;;;;;;31.38;36.92;98865.19;5050940;28;20244;-65
2023/08/07 08:25:31;;;;;;;0.30;0.30;;;;;;;31.53;36.83;98862.50;5049664;28;20654;-65
2023/08/07 08:27:58;;;;;;;0.20;0.20;;;;;;;31.48;33.69;98864.88;5051020;28;20204;-65
2023/08/07 08:30:26;;;;;;;0.38;0.38;;;;;;;31.55;35.47;98860.47;5049963;28;20197;-65
2023/08/07 08:32:52;;;;;;;1.20;1.20;;;;;;;31.51;36.09;98848.59;5050167;28;20254;-65
2023/08/07 08:35:19;;;;;;;0.30;0.30;;;;;;;31.53;36.78;98851.91;5050069;28;20266;-65
2023/08/07 08:37:46;;;;;;;0.30;0.30;;;;;;;31.65;35.78;98850.34;5050340;28;20201;-65
2023/08/07 08:40:16;;;;;;;0.30;0.30;;;;;;;31.67;33.85;98864.22;5050621;28;20200;-65
2023/08/07 08:42:44;;;;;;;0.30;0.30;;;;;;;31.71;33.69;98850.41;5051864;28;20652;-65
2023/08/07 08:45:13;;;;;;;0.20;0.20;;;;;;;31.58;32.92;98844.19;5051386;28;20220;-66
2023/08/07 08:47:43;;;;;;;0.20;0.20;;;;;;;31.49;34.86;98842.66;5051943;28;20204;-66
2023/08/07 08:50:12;;;;;;;1.27;0.30;;;;;;;31.54;33.18;98829.66;5048761;28;20205;-63
2023/08/07 08:52:42;;;;;;;0.30;0.30;;;;;;;31.70;34.40;98834.66;5052030;28;20228;-66
2023/08/07 08:55:09;;;;;;;0.30;0.30;;;;;;;31.83;34.70;98837.41;5051702;28;20198;-64
2023/08/07 08:57:38;;;;;;;0.20;0.20;;;;;;;31.91;35.24;98831.97;5047189;28;20212;-63
2023/08/07 09:00:14;;;;;;;0.38;0.32;;;;;;;31.79;33.78;98833.53;5048257;28;20215;-63
2023/08/07 09:02:44;;;;;;;0.30;0.30;;;;;;;31.84;33.75;98820.50;5047208;28;20200;-64
2023/08/07 09:05:10;;;;;;;0.20;0.20;;;;;;;31.90;34.21;98822.34;5050257;28;20216;-64
2023/08/07 09:07:38;;;;;;;0.30;0.30;;;;;;;31.84;31.48;98831.09;5049581;28;20278;-65
2023/08/07 09:10:06;;;;;;;0.25;0.25;;;;;;;31.97;33.54;98833.81;5048742;28;20216;-63
2023/08/07 09:12:34;;;;;;;0.20;0.20;;;;;;;32.08;35.84;98824.53;5045621;28;20201;-67
2023/08/07 09:15:04;;;;;;;0.20;0.20;;;;;;;32.10;33.57;98820.66;5047702;28;20205;-64
2023/08/07 09:17:35;;;;;;;0.20;0.20;;;;;;;32.13;34.82;98816.78;5046255;28;20305;-67
2023/08/07 09:20:06;;;;;;;0.30;0.30;;;;;;;32.20;36.34;98813.16;5047016;28;20217;-68
2023/08/07 09:22:33;;;;;;;0.20;0.20;;;;;;;32.16;32.81;98806.59;5047132;28;20259;-69
2023/08/07 09:25:00;;;;;;;0.28;0.28;;;;;;;32.33;32.35;98796.47;5045633;28;20216;-69
2023/08/07 09:27:27;;;;;;;0.30;0.30;;;;;;;32.35;32.01;98805.03;5047747;28;20220;-65
2023/08/07 09:29:56;;;;;;;0.30;0.30;;;;;;;32.24;33.06;98806.44;5048912;28;20223;-66
2023/08/07 09:32:24;;;;;;;0.30;0.30;;;;;;;32.13;31.14;98801.69;5048350;28;20295;-66
2023/08/07 09:34:52;;;;;;;0.30;0.30;;;;;;;32.11;30.96;98809.03;5046229;28;20287;-67
2023/08/07 09:37:20;;;;;;;0.20;0.20;;;;;;;32.29;31.38;98807.66;5047987;28;20211;-67
2023/08/07 09:39:47;;;;;;;0.20;0.20;;;;;;;32.33;30.90;98806.25;5047283;28;20660;-65
2023/08/07 09:42:15;;;;;;;0.20;0.20;;;;;;;32.47;31.74;98807.94;5048734;28;20208;-66
2023/08/07 09:44:42;;;;;;;0.28;0.28;;;;;;;32.50;30.07;98781.00;5050312;28;20679;-66
2023/08/07 09:47:14;;;;;;;0.35;0.35;;;;;;;32.66;32.48;98796.56;5048512;28;20197;-65
2023/08/07 09:49:41;;;;;;;0.30;0.30;;;;;;;32.67;30.42;98793.69;5046330;28;20271;-62
2023/08/07 09:52:09;;;;;;;0.20;0.20;;;;;;;32.64;30.34;98787.97;5049220;28;20648;-62
2023/08/07 09:54:38;;;;;;;0.38;0.38;;;;;;;32.71;34.08;98794.13;5046984;28;20259;-62
2023/08/07 09:57:06;;;;;;;0.40;0.40;;;;;;;32.72;34.60;98780.66;5050342;28;20288;-61
2023/08/07 09:59:33;;;;;;;0.38;0.38;;;;;;;32.79;33.72;98785.97;5050503;28;20212;-61
2023/08/07 10:02:02;;;;;;;0.20;0.20;;;;;;;32.95;31.69;98785.56;5048834;28;20203;-62
2023/08/07 10:04:29;;;;;;;0.25;0.25;;;;;;;33.14;32.48;98778.66;5049347;28;20299;-61
2023/08/07 10:06:57;;;;;;;0.38;0.38;;;;;;;33.25;35.76;98778.00;5045421;28;20213;-61
2023/08/07 10:09:24;;;;;;;0.28;0.28;;;;;;;33.31;33.71;98779.06;5050423;28;20197;-61
2023/08/07 10:11:52;;;;;;;0.20;0.20;;;;;;;33.36;33.05;98779.22;5050542;28;20254;-62
2023/08/07 10:14:19;;;;;;;0.22;0.22;;;;;;;33.34;30.91;98778.63;5049630;28;20212;-61
2023/08/07 10:16:47;;;;;;;0.30;0.30;;;;;;;33.54;30.23;98779.44;5050408;28;20697;-63
2023/08/07 10:19:14;;;;;;;0.20;0.20;;;;;;;33.57;30.55;98771.03;5050595;28;20243;-62
2023/08/07 10:21:41;;;;;;;0.30;0.30;;;;;;;33.55;31.78;98775.72;5048736;28;20235;-62
2023/08/07 10:24:09;;;;;;;0.30;0.30;;;;;;;33.62;30.58;98771.25;5049085;28;20224;-61
2023/08/07 10:26:39;;;;;;;0.25;0.25;;;;;;;33.52;34.56;98778.78;5048133;28;20629;-62
2023/08/07 10:29:12;;;;;;;0.30;0.30;;;;;;;33.50;31.49;98751.63;5049927;28;20210;-62
2023/08/07 10:31:41;;;;;;;0.30;0.30;;;;;;;33.63;32.25;98756.94;5050590;28;20605;-62
2023/08/07 10:34:08;;;;;;;0.40;0.40;;;;;;;33.70;31.36;98758.53;5049702;28;20211;-62
2023/08/07 10:36:38;;;;;;;0.30;0.30;;;;;;;33.73;31.66;98762.63;5050658;28;20196;-64
2023/08/07 10:39:09;;;;;;;0.30;0.30;;;;;;;33.91;28.87;98765.41;5048693;28;20259;-69
2023/08/07 10:41:40;;;;;;;0.30;0.30;;;;;;;34.06;27.41;98763.28;5048371;28;20208;-67
2023/08/07 10:44:19;;;;;;;0.30;0.30;;;;;;;34.05;27.50;98759.03;5049426;28;20311;-68
2023/08/07 10:46:50;;;;;;;0.32;0.32;;;;;;;34.22;28.77;98752.19;5052324;28;20243;-67
2023/08/07 10:49:36;;;;;;;0.20;0.20;;;;;;;34.42;28.05;98751.25;5053813;28;20231;-66
2023/08/07 10:52:04;;;;;;;0.20;0.20;;;;;;;34.52;27.80;98749.75;5054330;28;20667;-66
2023/08/07 10:54:31;;;;;;;0.30;0.30;;;;;;;34.70;28.39;98746.41;5052963;28;20584;-66
2023/08/07 10:57:02;;;;;;;0.40;0.40;;;;;;;34.57;28.56;98743.81;5052801;28;20205;-67
2023/08/07 10:59:31;;;;;;;0.20;0.20;;;;;;;34.43;28.17;98742.25;5052823;28;20201;-66
2023/08/07 11:01:59;;;;;;;0.20;0.20;;;;;;;34.42;29.71;98736.09;5051545;28;20291;-66
2023/08/07 11:04:27;;;;;;;0.28;0.28;;;;;;;34.33;30.89;98741.91;5052424;28;20239;-67
2023/08/07 11:06:54;;;;;;;0.20;0.20;;;;;;;34.39;29.15;98743.72;5053060;28;20220;-67
2023/08/07 11:09:20;;;;;;;0.40;0.40;;;;;;;34.54;27.99;98733.59;5050853;28;20219;-67
2023/08/07 11:11:49;;;;;;;0.22;0.22;;;;;;;34.57;28.44;98733.16;5051688;28;20212;-67
2023/08/07 11:14:17;;;;;;;0.20;0.20;;;;;;;34.61;30.45;98724.53;5051653;28;20684;-67
2023/08/07 11:16:47;;;;;;;0.38;0.38;;;;;;;34.71;30.29;98722.22;5052742;28;20205;-67
2023/08/07 11:19:15;;;;;;;0.20;0.20;;;;;;;34.54;29.44;98725.59;5052225;28;20613;-67
2023/08/07 11:21:43;;;;;;;0.30;0.30;;;;;;;34.49;28.93;98720.91;5049844;28;20283;-69
2023/08/07 11:24:13;;;;;;;0.20;0.20;;;;;;;34.38;29.07;98710.94;5050995;28;20215;-67
2023/08/07 11:26:40;;;;;;;0.32;0.32;;;;;;;34.36;30.62;98725.50;5051824;28;20653;-67
2023/08/07 11:29:07;;;;;;;0.20;0.20;;;;;;;34.51;29.13;98718.06;5051913;28;20641;-67
2023/08/07 11:31:34;;;;;;;0.30;0.30;;;;;;;34.63;30.55;98711.03;5051712;28;20664;-66
2023/08/07 11:34:03;;;;;;;0.20;0.20;;;;;;;34.55;28.80;98713.91;5052674;28;20201;-67
2023/08/07 11:36:31;;;;;;;0.20;0.20;;;;;;;34.53;29.14;98689.34;5052623;28;20715;-67